Time;durP1;ratioP1;P1;durP2;ratioP2;P2;SDS_P1;SDS_P2;PMS_P1;PMS_P2;Temp;Humidity;BMP_temperature;BMP_pressure;BME280_temperature;BME280_humidity;BME280_pressure;Samples;Min_cycle;Max_cycle;Signal;HPM_P1;HPM_P2
2022/10/11 00:02:16;;;;;;;;;;;;;;;14.83;60.23;100100.63;4314847;33;34431;-96
2022/10/11 00:04:46;;;;;;;;;;;;;;;14.87;59.77;100102.28;4310264;33;33584;-92
2022/10/11 00:07:17;;;;;;;;;;;;;;;14.90;59.67;100103.03;4311796;33;34370;-88
2022/10/11 00:09:46;;;;;;;;;;;;;;;14.74;60.41;100099.09;4310655;33;33777;-91
2022/10/11 00:12:16;;;;;;;;;;;;;;;14.78;60.21;100097.28;4303104;33;34561;-89
2022/10/11 00:14:44;;;;;;;;;;;;;;;14.78;60.28;100097.28;4299965;33;34206;-90
2022/10/11 00:17:15;;;;;;;;;;;;;;;14.79;60.35;100094.63;4320282;33;33283;-95
2022/10/11 00:19:58;;;;;;;;;;;;;;;15.34;59.14;100093.25;4470228;31;1093548;-89
2022/10/11 00:22:41;;;;;;;;;;;;;;;15.33;58.87;100099.34;4480512;31;1061554;-89
2022/10/11 00:25:25;;;;;;;;;;;;;;;15.30;58.86;100096.84;4518005;31;792081;-88
2022/10/11 00:28:07;;;;;;;;;;;;;;;15.33;58.66;100090.66;4495552;31;734778;-91
2022/10/11 00:30:49;;;;;;;;;;;;;;;15.09;59.29;100092.16;4475109;31;731941;-88
2022/10/11 00:33:34;;;;;;;;;;;;;;;15.10;59.20;100086.00;4481736;31;787504;-91
2022/10/11 00:36:17;;;;;;;;;;;;;;;14.96;59.56;100096.84;4489231;31;795098;-88
2022/10/11 00:39:01;;;;;;;;;;;;;;;15.05;59.20;100090.50;4478278;31;782934;-88
2022/10/11 00:41:41;;;;;;;;;;;;;;;14.70;59.72;100090.47;4405167;32;741832;-89
2022/10/11 00:44:25;;;;;;;;;;;;;;;14.77;59.79;100087.72;4460534;31;796906;-93
2022/10/11 00:47:09;;;;;;;;;;;;;;;14.86;59.56;100082.25;4463029;31;787237;-89
2022/10/11 00:49:52;;;;;;;;;;;;;;;14.80;59.58;100072.81;4488772;31;782455;-88
2022/10/11 00:52:34;;;;;;;;;;;;;;;14.43;60.24;100076.28;4478537;31;803207;-92
2022/10/11 00:55:19;;;;;;;;;;;;;;;14.83;59.27;100072.75;4479314;31;1047428;-90
2022/10/11 00:58:12;;;;;;;;;;;;;;;14.78;59.26;100086.81;4476625;31;788320;-89
2022/10/11 01:00:54;;;;;;;;;;;;;;;14.81;59.01;100071.94;4467271;31;1082812;-91
2022/10/11 01:03:34;;;;;;;;;;;;;;;14.73;59.23;100079.09;4471995;31;750903;-89
2022/10/11 01:06:19;;;;;;;;;;;;;;;14.64;59.57;100074.09;4488239;31;786940;-88
2022/10/11 01:09:03;;;;;;;;;;;;;;;14.40;60.29;100080.69;4303573;31;7037889;-89
2022/10/11 01:11:44;;;;;;;;;;;;;;;14.41;60.27;100077.22;4475929;31;769433;-90
2022/10/11 01:14:50;;;;;;;;;;;;;;;14.43;60.27;100081.50;4513110;31;782551;-88
2022/10/11 01:17:32;;;;;;;;;;;;;;;14.40;60.32;100084.19;4463801;31;1617191;-90
2022/10/11 01:20:18;;;;;;;;;;;;;;;14.38;60.88;100080.75;4451077;31;1990318;-89
2022/10/11 01:23:24;;;;;;;;;;;;;;;14.41;61.23;100072.84;4457575;32;766346;-90
2022/10/11 01:26:20;;;;;;;;;;;;;;;14.32;61.31;100072.19;4513156;31;784820;-91
2022/10/11 01:29:06;;;;;;;;;;;;;;;14.33;61.21;100076.50;4467747;31;733158;-89
2022/10/11 01:31:49;;;;;;;;;;;;;;;14.28;61.72;100074.03;4302957;31;7039397;-90
2022/10/11 01:34:32;;;;;;;;;;;;;;;14.14;62.03;100069.09;4472975;31;1062095;-88
2022/10/11 01:37:17;;;;;;;;;;;;;;;14.16;62.12;100069.06;4511247;31;778032;-92
2022/10/11 01:40:01;;;;;;;;;;;;;;;14.20;62.12;100063.72;4509750;31;783172;-88
2022/10/11 01:42:44;;;;;;;;;;;;;;;14.22;61.95;100069.78;4492517;31;754185;-89
2022/10/11 01:45:28;;;;;;;;;;;;;;;14.12;62.25;100060.44;4480778;31;784625;-92
2022/10/11 01:48:12;;;;;;;;;;;;;;;14.17;61.95;100055.13;4495114;31;805072;-87
2022/10/11 01:50:54;;;;;;;;;;;;;;;14.06;62.49;100055.34;4476218;31;736768;-91
2022/10/11 01:53:47;;;;;;;;;;;;;;;13.96;62.43;100064.28;4360066;31;4694185;-88
2022/10/11 01:56:34;;;;;;;;;;;;;;;13.95;62.71;100058.19;4477478;31;737596;-89
2022/10/11 01:59:19;;;;;;;;;;;;;;;14.09;62.00;100056.16;4505500;31;736889;-94
2022/10/11 02:02:03;;;;;;;;;;;;;;;14.03;62.35;100060.63;4476044;31;746393;-91
2022/10/11 02:04:49;;;;;;;;;;;;;;;13.61;63.15;100061.50;4484653;31;738143;-91
2022/10/11 02:07:31;;;;;;;;;;;;;;;14.12;62.12;100056.97;4491739;31;804584;-88
2022/10/11 02:10:15;;;;;;;;;;;;;;;14.06;62.36;100060.56;4480666;31;743666;-87
2022/10/11 02:13:08;;;;;;;;;;;;;;;13.97;62.56;100051.22;4468290;31;793073;-91
2022/10/11 02:15:53;;;;;;;;;;;;;;;14.07;62.13;100050.09;4462287;31;787673;-89
2022/10/11 02:18:35;;;;;;;;;;;;;;;13.96;62.46;100054.69;4459321;31;1620091;-88
2022/10/11 02:21:18;;;;;;;;;;;;;;;13.98;62.09;100058.13;4458580;31;1868609;-89
2022/10/11 02:24:03;;;;;;;;;;;;;;;13.97;62.09;100056.44;4480216;31;791177;-88
2022/10/11 02:26:47;;;;;;;;;;;;;;;13.98;62.01;100063.34;4487764;31;736139;-94
2022/10/11 02:29:42;;;;;;;;;;;;;;;13.99;61.85;100061.59;4480198;31;782330;-89
2022/10/11 02:32:29;;;;;;;;;;;;;;;13.76;62.45;100060.31;4489465;31;736148;-91
2022/10/11 02:35:13;;;;;;;;;;;;;;;13.77;62.42;100059.44;4481280;31;732933;-87
2022/10/11 02:37:56;;;;;;;;;;;;;;;13.74;62.65;100069.06;4482100;31;785114;-89
2022/10/11 02:40:47;;;;;;;;;;;;;;;13.80;62.71;100059.38;4496344;31;781512;-88
2022/10/11 02:43:30;;;;;;;;;;;;;;;13.44;63.43;100063.56;4495121;31;791614;-89
2022/10/11 02:46:18;;;;;;;;;;;;;;;13.03;64.18;100065.16;4489952;31;739939;-91
2022/10/11 02:49:08;;;;;;;;;;;;;;;13.66;63.10;100064.88;4517614;31;769817;-90
2022/10/11 02:51:49;;;;;;;;;;;;;;;13.73;62.87;100069.97;4494723;31;742182;-87
2022/10/11 02:54:34;;;;;;;;;;;;;;;13.65;63.10;100068.38;4495454;31;784234;-90
2022/10/11 02:57:17;;;;;;;;;;;;;;;13.28;63.54;100072.56;4486659;31;742756;-88
2022/10/11 03:00:02;;;;;;;;;;;;;;;13.69;62.85;100068.31;4476871;31;745114;-90
2022/10/11 03:02:46;;;;;;;;;;;;;;;13.56;63.41;100067.69;4430190;31;1610395;-94
2022/10/11 03:05:35;;;;;;;;;;;;;;;13.72;63.09;100063.87;4483589;31;786901;-92
2022/10/11 03:08:28;;;;;;;;;;;;;;;13.39;63.87;100065.41;4469478;31;745197;-88
2022/10/11 03:11:16;;;;;;;;;;;;;;;13.65;63.17;100064.88;4475985;31;741769;-93
2022/10/11 03:14:01;;;;;;;;;;;;;;;13.66;62.99;100059.66;4472187;31;751364;-90
2022/10/11 03:16:42;;;;;;;;;;;;;;;13.25;63.63;100063.03;4489093;31;730912;-93
2022/10/11 03:19:24;;;;;;;;;;;;;;;13.49;63.58;100068.69;4482534;31;760572;-89
2022/10/11 03:22:06;;;;;;;;;;;;;;;13.68;63.09;100070.06;4503825;31;777040;-92
2022/10/11 03:24:49;;;;;;;;;;;;;;;13.64;63.17;100068.41;4465436;31;796173;-94
2022/10/11 03:27:31;;;;;;;;;;;;;;;13.62;63.20;100070.16;4480945;31;797303;-92
2022/10/11 03:30:15;;;;;;;;;;;;;;;13.65;63.56;100076.19;4469174;31;783406;-93
2022/10/11 03:33:11;;;;;;;;;;;;;;;13.70;62.99;100073.50;4471063;31;798851;-88
2022/10/11 03:35:54;;;;;;;;;;;;;;;13.55;63.79;100079.00;4450737;31;737775;-93
2022/10/11 03:38:37;;;;;;;;;;;;;;;13.64;63.48;100084.87;4486839;31;744715;-88
2022/10/11 03:41:19;;;;;;;;;;;;;;;13.58;63.73;100087.63;4481497;31;757318;-89
2022/10/11 03:44:03;;;;;;;;;;;;;;;13.64;63.82;100086.66;4506372;31;780976;-92
2022/10/11 03:46:45;;;;;;;;;;;;;;;13.29;64.37;100085.56;4465015;31;962863;-89
2022/10/11 03:49:29;;;;;;;;;;;;;;;13.50;64.34;100081.69;4463126;31;801149;-90
2022/10/11 03:52:18;;;;;;;;;;;;;;;13.73;63.78;100088.22;4475532;31;737330;-91
2022/10/11 03:55:15;;;;;;;;;;;;;;;13.80;63.98;100095.88;4498192;31;783410;-94
2022/10/11 03:57:56;;;;;;;;;;;;;;;13.87;63.67;100086.19;4426105;31;2122669;-89
2022/10/11 04:00:39;;;;;;;;;;;;;;;13.78;63.74;100082.03;4474816;31;738150;-88
2022/10/11 04:03:24;;;;;;;;;;;;;;;13.83;63.52;100089.75;4464023;31;753470;-88
2022/10/11 04:06:10;;;;;;;;;;;;;;;13.78;63.99;100092.44;4492550;31;1034818;-88
2022/10/11 04:08:52;;;;;;;;;;;;;;;13.44;64.38;100090.50;4471574;31;760805;-91
2022/10/11 04:11:53;;;;;;;;;;;;;;;13.91;63.57;100087.84;4463228;31;814683;-90
2022/10/11 04:14:40;;;;;;;;;;;;;;;13.85;63.50;100090.59;4461691;31;811825;-90
2022/10/11 04:17:22;;;;;;;;;;;;;;;13.78;63.91;100092.44;4459243;31;927048;-91
2022/10/11 04:20:06;;;;;;;;;;;;;;;14.06;62.98;100091.87;4496052;31;1021436;-90
2022/10/11 04:22:47;;;;;;;;;;;;;;;13.92;63.53;100091.69;4500453;31;779336;-91
2022/10/11 04:25:29;;;;;;;;;;;;;;;13.87;63.52;100094.87;4468489;31;825099;-93
2022/10/11 04:28:12;;;;;;;;;;;;;;;13.83;63.73;100097.56;4464336;31;1072588;-92
2022/10/11 04:30:54;;;;;;;;;;;;;;;13.82;63.81;100099.34;4465657;31;810397;-94
2022/10/11 04:33:35;;;;;;;;;;;;;;;13.88;63.47;100099.19;4512294;31;785172;-89
2022/10/11 04:36:17;;;;;;;;;;;;;;;13.84;63.66;100088.84;4500128;31;812194;-90
2022/10/11 04:39:00;;;;;;;;;;;;;;;13.81;63.55;100087.16;4479693;31;763114;-89
2022/10/11 04:41:43;;;;;;;;;;;;;;;13.76;63.54;100091.63;4484322;31;755057;-88
2022/10/11 04:44:28;;;;;;;;;;;;;;;13.74;63.64;100089.72;4500024;31;794866;-88
2022/10/11 04:47:22;;;;;;;;;;;;;;;13.42;64.23;100092.25;4483422;31;762640;-88
2022/10/11 04:50:04;;;;;;;;;;;;;;;13.73;63.64;100090.84;4430105;31;3602985;-88
2022/10/11 04:52:46;;;;;;;;;;;;;;;13.99;63.29;100091.16;4372337;31;3487547;-89
2022/10/11 04:55:29;;;;;;;;;;;;;;;13.81;64.16;100094.13;4488651;31;752324;-89
2022/10/11 04:58:10;;;;;;;;;;;;;;;13.81;64.01;100095.00;4518187;31;20302;-87
2022/10/11 05:00:38;;;;;;;;;;;;;;;13.81;64.01;100095.00;4477321;31;769228;-88
2022/10/11 05:03:24;;;;;;;;;;;;;;;13.90;64.17;100096.56;4484688;31;771820;-87
2022/10/11 05:06:08;;;;;;;;;;;;;;;13.83;64.39;100095.81;4495202;31;1085098;-90
2022/10/11 05:08:58;;;;;;;;;;;;;;;13.96;64.06;100100.78;4440656;31;756393;-88
2022/10/11 05:11:41;;;;;;;;;;;;;;;13.93;64.21;100104.31;4479989;31;783150;-88
2022/10/11 05:14:25;;;;;;;;;;;;;;;13.93;64.08;100101.72;4456381;32;760210;-89
2022/10/11 05:17:07;;;;;;;;;;;;;;;13.93;64.47;100101.72;4476996;31;785822;-88
2022/10/11 05:19:49;;;;;;;;;;;;;;;13.90;64.93;100101.78;4443326;32;1066677;-90
2022/10/11 05:22:31;;;;;;;;;;;;;;;14.06;64.77;100105.81;4440372;31;1962924;-88
2022/10/11 05:25:14;;;;;;;;;;;;;;;14.17;64.48;100117.75;4413364;31;3042421;-89
2022/10/11 05:27:55;;;;;;;;;;;;;;;14.14;64.82;100116.06;4448417;31;1631010;-88
2022/10/11 05:30:39;;;;;;;;;;;;;;;14.23;64.85;100110.66;4465812;31;779020;-88
2022/10/11 05:33:24;;;;;;;;;;;;;;;14.22;65.26;100114.16;4470523;31;778332;-87
2022/10/11 05:36:13;;;;;;;;;;;;;;;14.33;64.94;100124.38;4456481;31;824019;-88
2022/10/11 05:39:02;;;;;;;;;;;;;;;14.46;64.75;100123.19;4445925;31;1064384;-90
2022/10/11 05:41:51;;;;;;;;;;;;;;;14.09;65.41;100117.91;4479963;31;766607;-91
2022/10/11 05:44:37;;;;;;;;;;;;;;;14.69;64.10;100130.56;4459613;31;754765;-91
2022/10/11 05:47:19;;;;;;;;;;;;;;;14.75;63.58;100129.53;4453865;31;1078170;-90
2022/10/11 05:50:04;;;;;;;;;;;;;;;14.63;64.17;100141.13;4462996;31;834372;-89
2022/10/11 05:52:50;;;;;;;;;;;;;;;14.79;63.68;100139.03;4471082;31;757993;-90
2022/10/11 05:55:36;;;;;;;;;;;;;;;14.78;63.84;100147.75;4468598;31;749078;-90
2022/10/11 05:58:24;;;;;;;;;;;;;;;14.75;64.26;100145.22;4516948;31;20000;-91
2022/10/11 06:00:55;;;;;;;;;;;;;;;14.75;64.26;100145.22;4464413;31;764979;-90
2022/10/11 06:03:38;;;;;;;;;;;;;;;15.02;63.58;100154.16;4470473;31;819374;-89
2022/10/11 06:06:20;;;;;;;;;;;;;;;15.01;63.65;100144.59;4464564;31;763516;-90
2022/10/11 06:09:04;;;;;;;;;;;;;;;15.02;63.95;100159.37;4486203;31;764638;-87
2022/10/11 06:12:04;;;;;;;;;;;;;;;15.08;63.94;100148.78;4486193;31;812137;-89
2022/10/11 06:14:55;;;;;;;;;;;;;;;15.18;63.91;100152.03;4466746;31;1386218;-89
2022/10/11 06:17:47;;;;;;;;;;;;;;;15.33;63.45;100156.88;4484380;31;816837;-90
2022/10/11 06:20:30;;;;;;;;;;;;;;;15.36;63.50;100150.69;4484568;31;761288;-88
2022/10/11 06:23:33;;;;;;;;;;;;;;;14.97;64.29;100157.78;4473720;31;817674;-87
2022/10/11 06:26:16;;;;;;;;;;;;;;;15.37;63.89;100162.91;4469800;31;1094155;-87
2022/10/11 06:29:24;;;;;;;;;;;;;;;15.41;63.24;100163.66;4484381;31;789769;-88
2022/10/11 06:32:13;;;;;;;;;;;;;;;15.10;63.87;100172.25;4399339;31;3563029;-88
2022/10/11 06:35:11;;;;;;;;;;;;;;;15.55;62.50;100164.16;4474825;31;819619;-90
2022/10/11 06:37:58;;;;;;;;;;;;;;;15.83;60.78;100160.88;4474539;31;866555;-90
2022/10/11 06:44:15;;;;;;;;;;;;;;;16.03;58.08;100165.53;4484371;31;810848;-89
2022/10/11 06:47:09;;;;;;;;;;;;;;;16.44;55.85;100169.56;4475797;31;836028;-89
2022/10/11 06:50:09;;;;;;;;;;;;;;;16.23;57.06;100167.59;4495509;31;766116;-90
2022/10/11 06:53:10;;;;;;;;;;;;;;;16.44;56.23;100177.44;4469430;31;812404;-88
2022/10/11 06:56:16;;;;;;;;;;;;;;;15.94;57.36;100174.50;4457404;32;811803;-89
2022/10/11 07:02:20;;;;;;;;;;;;;;;16.76;55.97;100184.31;4471562;31;819554;-88
2022/10/11 07:05:17;;;;;;;;;;;;;;;16.98;56.01;100184.53;4431695;32;821682;-91
2022/10/11 07:08:07;;;;;;;;;;;;;;;17.26;55.24;100176.63;4456927;31;787400;-89
2022/10/11 07:10:50;;;;;;;;;;;;;;;17.26;55.24;100176.63;4514233;31;34405;-90
2022/10/11 07:13:43;;;;;;;;;;;;;;;17.28;53.41;100190.56;4477291;31;801978;-91
2022/10/11 07:16:32;;;;;;;;;;;;;;;16.82;54.36;100184.16;4472379;31;869072;-90
2022/10/11 07:19:26;;;;;;;;;;;;;;;17.48;53.62;100179.41;4485072;31;774870;-90
2022/10/11 07:23:31;;;;;;;;;;;;;;;17.52;54.00;100192.41;4406764;31;3598833;-92
2022/10/11 07:36:59;;;;;;;;;;;;;;;17.24;54.86;100186.31;4433087;32;1200603;-88
2022/10/11 07:39:56;;;;;;;;;;;;;;;17.72;55.01;100186.50;4441736;32;1090897;-89
2022/10/11 07:42:59;;;;;;;;;;;;;;;17.75;54.05;100196.87;4458955;32;766669;-90
2022/10/11 07:45:54;;;;;;;;;;;;;;;17.72;54.49;100189.13;4493121;31;802834;-91
2022/10/11 07:48:43;;;;;;;;;;;;;;;18.06;54.06;100186.19;4489301;31;862528;-90
2022/10/11 07:51:42;;;;;;;;;;;;;;;18.07;54.49;100190.50;4469790;31;826507;-89
2022/10/11 07:57:33;;;;;;;;;;;;;;;18.17;53.80;100189.28;4428289;31;3433348;-90
2022/10/11 08:03:27;;;;;;;;;;;;;;;18.52;52.14;100193.22;4502334;31;815668;-90
2022/10/11 08:06:40;;;;;;;;;;;;;;;18.71;50.79;100196.00;4436606;31;776024;-89
2022/10/11 08:09:41;;;;;;;;;;;;;;;18.50;51.72;100192.41;4452216;31;872281;-91
2022/10/11 08:12:25;;;;;;;;;;;;;;;18.50;51.72;100192.41;4493467;31;34250;-90
2022/10/11 08:15:25;;;;;;;;;;;;;;;17.94;54.10;100202.38;4483330;31;868601;-90
2022/10/11 08:18:25;;;;;;;;;;;;;;;19.00;51.53;100196.66;4469843;31;844755;-91
2022/10/11 08:21:29;;;;;;;;;;;;;;;19.20;50.94;100193.22;4443062;31;1746464;-89
2022/10/11 08:24:36;;;;;;;;;;;;;;;19.03;51.38;100196.53;4467424;32;773796;-90
2022/10/11 08:27:52;;;;;;;;;;;;;;;18.54;52.44;100195.78;4379824;31;3513581;-90
2022/10/11 08:45:49;;;;;;;;;;;;;;;19.18;52.95;100197.69;5351772;26;953446;-92
2022/10/11 08:55:36;;;;;;;;;;;;;;;18.66;54.12;100199.72;5420285;26;34148;-93
2022/10/11 08:58:31;;;;;;;;;;;;;;;18.82;54.24;100197.38;5396580;26;34838;-89
2022/10/11 09:01:49;;;;;;;;;;;;;;;19.01;53.41;100200.13;5369956;26;34276;-90
2022/10/11 09:11:56;;;;;;;;;;;;;;;19.04;53.78;100187.75;5349553;26;34114;-92
2022/10/11 09:15:19;;;;;;;;;;;;;;;19.17;54.26;100193.34;5344997;26;33777;-89
2022/10/11 09:18:23;;;;;;;;;;;;;;;19.19;54.87;100202.91;5351715;26;36987;-92
2022/10/11 14:21:18;;;;;;;;;;;;;;;22.06;47.19;100142.97;5193058;27;35634;-92
2022/10/11 14:48:16;;;;;;;;;;;;;;;21.57;50.36;100153.47;5194106;27;34263;-90
2022/10/11 14:58:10;;;;;;;;;;;;;;;21.26;52.04;100145.31;5175642;27;35166;-90
2022/10/11 15:03:55;;;;;;;;;;;;;;;21.21;52.44;100143.81;5174779;27;34401;-92
2022/10/11 15:10:02;;;;;;;;;;;;;;;21.14;53.80;100147.69;5241306;27;35253;-90
2022/10/11 15:12:57;;;;;;;;;;;;;;;20.96;54.47;100147.66;5265696;27;34742;-90
2022/10/11 15:15:40;;;;;;;;;;;;;;;20.89;54.73;100152.37;5254382;27;34411;-91
2022/10/11 15:21:11;;;;;;;;;;;;;;;20.96;55.03;100152.09;5254368;27;34853;-90
2022/10/11 15:23:59;;;;;;;;;;;;;;;20.96;55.44;100165.28;5257178;27;34187;-90
2022/10/11 15:26:44;;;;;;;;;;;;;;;20.93;55.27;100168.06;5259452;27;34723;-92
2022/10/11 15:29:23;;;;;;;;;;;;;;;20.97;54.69;100161.69;5260174;27;34605;-91
2022/10/11 15:32:02;;;;;;;;;;;;;;;20.82;55.16;100161.50;5276822;27;36352;-90
2022/10/11 15:34:36;;;;;;;;;;;;;;;20.86;55.28;100164.88;5296068;26;33530;-91
2022/10/11 15:37:09;;;;;;;;;;;;;;;20.88;54.61;100163.88;5310022;26;34426;-90
2022/10/11 15:40:01;;;;;;;;;;;;;;;20.71;55.61;100166.47;5324805;26;34500;-92
2022/10/11 15:42:40;;;;;;;;;;;;;;;20.77;56.19;100171.44;5325079;26;33948;-91
2022/10/11 15:45:14;;;;;;;;;;;;;;;20.64;56.83;100176.44;5324236;26;32660;-90
2022/10/11 15:47:58;;;;;;;;;;;;;;;20.65;56.90;100172.84;5326229;26;34238;-89
2022/10/11 15:50:38;;;;;;;;;;;;;;;20.67;57.02;100171.00;5325465;26;35276;-90
2022/10/11 15:53:33;;;;;;;;;;;;;;;20.64;55.72;100180.84;5324781;26;34385;-89
2022/10/11 15:56:17;;;;;;;;;;;;;;;20.31;56.55;100178.81;5325464;26;33612;-89
2022/10/11 15:58:57;;;;;;;;;;;;;;;20.16;56.80;100175.09;5346472;26;34320;-89
2022/10/11 16:01:27;;;;;;;;;;;;;;;20.03;57.16;100174.81;5346440;26;34188;-91
2022/10/11 16:04:00;;;;;;;;;;;;;;;19.95;57.39;100176.06;5340362;26;34049;-90
2022/10/11 16:09:32;;;;;;;;;;;;;;;20.17;57.61;100186.47;5344414;26;35560;-91
2022/10/11 16:12:09;;;;;;;;;;;;;;;20.01;57.39;100181.06;5320332;26;32824;-89
2022/10/11 16:14:46;;;;;;;;;;;;;;;19.89;57.56;100187.72;5329231;26;36793;-90
2022/10/11 16:17:19;;;;;;;;;;;;;;;19.92;56.99;100190.22;5325257;26;32624;-89
2022/10/11 16:20:05;;;;;;;;;;;;;;;19.62;58.02;100190.59;5325691;26;35502;-89
2022/10/11 16:22:43;;;;;;;;;;;;;;;19.38;58.71;100203.00;5320469;26;34485;-91
2022/10/11 16:25:21;;;;;;;;;;;;;;;19.40;59.04;100200.28;5321296;26;33991;-91
2022/10/11 16:27:57;;;;;;;;;;;;;;;19.25;59.58;100200.94;5321740;26;32759;-91
2022/10/11 16:30:29;;;;;;;;;;;;;;;19.09;59.78;100212.09;5322063;26;32977;-93
2022/10/11 16:33:07;;;;;;;;;;;;;;;18.90;60.21;100206.69;5296356;26;34005;-92
2022/10/11 16:35:40;;;;;;;;;;;;;;;18.92;60.56;100211.91;5314937;26;32988;-92
2022/10/11 16:38:09;;;;;;;;;;;;;;;18.84;60.61;100219.22;5336112;26;33599;-94
2022/10/11 16:40:40;;;;;;;;;;;;;;;18.82;60.71;100216.63;5301521;26;33399;-93
2022/10/11 16:43:10;;;;;;;;;;;;;;;18.63;61.01;100218.22;5336531;26;33675;-91
2022/10/11 16:45:48;;;;;;;;;;;;;;;18.53;61.38;100221.22;5333250;26;33520;-89
2022/10/11 16:48:16;;;;;;;;;;;;;;;18.55;61.39;100218.50;5333880;26;33419;-91
2022/10/11 16:50:51;;;;;;;;;;;;;;;18.52;61.28;100224.75;5312835;26;35032;-91
2022/10/11 16:53:30;;;;;;;;;;;;;;;18.52;60.99;100227.37;5319868;26;34192;-92
2022/10/11 16:56:09;;;;;;;;;;;;;;;18.36;61.33;100220.97;5317097;26;35344;-93
2022/10/11 16:58:38;;;;;;;;;;;;;;;18.18;61.68;100222.50;5319413;26;34452;-90
2022/10/11 17:01:17;;;;;;;;;;;;;;;18.26;61.48;100223.06;5335654;26;34295;-91
2022/10/11 17:03:49;;;;;;;;;;;;;;;18.23;61.42;100227.59;5314989;26;35849;-92
2022/10/11 17:06:20;;;;;;;;;;;;;;;18.25;61.20;100226.63;5320198;26;32499;-92
2022/10/11 17:08:53;;;;;;;;;;;;;;;17.98;61.97;100235.50;5319024;26;34915;-90
2022/10/11 17:11:23;;;;;;;;;;;;;;;17.97;62.02;100237.25;5319166;26;35131;-94
2022/10/11 17:13:56;;;;;;;;;;;;;;;18.21;61.23;100242.53;5316190;26;34025;-93
2022/10/11 17:16:27;;;;;;;;;;;;;;;17.97;61.74;100245.13;5340395;26;34730;-90
2022/10/11 17:18:57;;;;;;;;;;;;;;;17.97;62.02;100241.63;5342882;26;32616;-95
2022/10/11 17:21:31;;;;;;;;;;;;;;;17.81;62.61;100243.97;5314425;26;35142;-92
2022/10/11 17:24:04;;;;;;;;;;;;;;;17.78;62.89;100246.63;5335359;26;35393;-90
2022/10/11 17:26:36;;;;;;;;;;;;;;;17.58;63.55;100245.53;5337129;26;34483;-94
2022/10/11 17:29:06;;;;;;;;;;;;;;;17.50;63.97;100258.06;5339081;26;32875;-94
2022/10/11 17:31:43;;;;;;;;;;;;;;;17.70;63.26;100249.50;5322395;26;34740;-90
2022/10/11 17:34:29;;;;;;;;;;;;;;;17.60;63.80;100256.84;5317742;26;35537;-93
2022/10/11 17:37:02;;;;;;;;;;;;;;;17.79;63.20;100259.72;5318219;26;32658;-91
2022/10/11 17:39:35;;;;;;;;;;;;;;;17.67;63.77;100263.59;5337486;26;33009;-90
2022/10/11 17:42:09;;;;;;;;;;;;;;;17.64;63.94;100266.34;5317653;26;34348;-91
2022/10/11 17:44:38;;;;;;;;;;;;;;;17.53;64.30;100260.56;5340560;26;34442;-94
2022/10/11 17:47:20;;;;;;;;;;;;;;;17.63;64.34;100261.13;5298452;26;34143;-92
2022/10/11 17:49:50;;;;;;;;;;;;;;;17.75;63.70;100257.25;5339679;26;35275;-94
2022/10/11 17:52:20;;;;;;;;;;;;;;;17.79;63.63;100257.09;5313252;26;34851;-91
2022/10/11 17:54:53;;;;;;;;;;;;;;;17.74;63.88;100261.63;5314518;26;34125;-90
2022/10/11 17:57:23;;;;;;;;;;;;;;;17.82;63.69;100258.78;5320728;26;32790;-93
2022/10/11 17:59:55;;;;;;;;;;;;;;;17.76;63.83;100265.06;5341146;26;33362;-89
2022/10/11 18:02:26;;;;;;;;;;;;;;;17.88;63.50;100259.44;5333619;26;34704;-92
2022/10/11 18:04:58;;;;;;;;;;;;;;;17.86;63.49;100258.63;5313672;26;35325;-92
2022/10/11 18:07:29;;;;;;;;;;;;;;;17.82;63.68;100266.66;5320610;26;34417;-90
2022/10/11 18:10:07;;;;;;;;;;;;;;;17.86;63.45;100266.50;5303802;26;34215;-92
2022/10/11 18:12:39;;;;;;;;;;;;;;;17.90;63.20;100265.50;5335989;26;35501;-92
2022/10/11 18:15:16;;;;;;;;;;;;;;;17.92;63.16;100261.03;5315635;26;36318;-92
2022/10/11 18:17:52;;;;;;;;;;;;;;;17.91;63.08;100267.19;5319278;26;32684;-90
2022/10/11 18:20:32;;;;;;;;;;;;;;;17.98;62.78;100270.47;5316970;26;33369;-93
2022/10/11 18:23:16;;;;;;;;;;;;;;;17.88;63.17;100271.72;5322309;26;36482;-91
2022/10/11 18:25:49;;;;;;;;;;;;;;;18.07;62.62;100270.16;5318994;26;34995;-92
2022/10/11 18:28:29;;;;;;;;;;;;;;;18.09;62.53;100275.34;5318009;26;33365;-91
2022/10/11 18:31:11;;;;;;;;;;;;;;;18.12;62.10;100270.84;5317872;26;34421;-91
2022/10/11 18:39:07;;;;;;;;;;;;;;;18.15;61.72;100269.03;5320587;26;34228;-91
2022/10/11 18:41:43;;;;;;;;;;;;;;;18.01;62.19;100269.50;5313983;26;34182;-94
2022/10/11 18:44:17;;;;;;;;;;;;;;;17.92;62.46;100275.91;5315335;26;35306;-90
2022/10/11 18:46:49;;;;;;;;;;;;;;;17.85;62.72;100271.78;5337276;26;34592;-91
2022/10/11 18:49:21;;;;;;;;;;;;;;;18.05;61.51;100269.34;5340396;26;34065;-92
2022/10/11 18:52:04;;;;;;;;;;;;;;;17.92;61.77;100263.66;5320518;26;33686;-91
2022/10/11 18:54:57;;;;;;;;;;;;;;;17.65;62.59;100269.81;5315510;26;35332;-93
2022/10/11 18:57:28;;;;;;;;;;;;;;;17.63;62.79;100266.38;5316047;26;36329;-90
2022/10/11 19:00:01;;;;;;;;;;;;;;;17.74;62.34;100266.03;5334596;26;33878;-89
2022/10/11 19:05:59;;;;;;;;;;;;;;;17.84;61.55;100259.59;5247766;27;34388;-90
2022/10/11 19:08:32;;;;;;;;;;;;;;;17.72;61.67;100265.22;5234734;27;34270;-92
2022/10/11 19:11:11;;;;;;;;;;;;;;;17.50;62.32;100260.69;5251357;27;34977;-92
2022/10/11 19:13:41;;;;;;;;;;;;;;;17.60;62.08;100267.34;5263844;27;34061;-91
2022/10/11 19:16:11;;;;;;;;;;;;;;;17.64;62.06;100274.22;5263338;27;34351;-91
2022/10/11 19:18:48;;;;;;;;;;;;;;;17.54;62.37;100271.91;5245157;27;34535;-90
2022/10/11 19:21:27;;;;;;;;;;;;;;;17.55;62.29;100271.03;5269689;27;33767;-92
2022/10/11 19:23:58;;;;;;;;;;;;;;;17.36;62.64;100276.84;5251868;27;34279;-90
2022/10/11 19:26:32;;;;;;;;;;;;;;;17.09;63.64;100273.34;5245424;27;34354;-90
2022/10/11 19:29:05;;;;;;;;;;;;;;;17.13;63.70;100277.59;5251502;27;35254;-91
2022/10/11 19:31:36;;;;;;;;;;;;;;;17.01;63.95;100270.94;5242718;27;36345;-91
2022/10/11 19:34:12;;;;;;;;;;;;;;;16.98;64.24;100281.50;5269077;27;33478;-92
2022/10/11 19:36:42;;;;;;;;;;;;;;;17.14;63.88;100279.28;5284464;27;34483;-91
2022/10/11 19:39:11;;;;;;;;;;;;;;;17.12;64.10;100275.84;5294423;27;33736;-90
2022/10/11 19:41:41;;;;;;;;;;;;;;;17.13;63.66;100274.97;5309169;27;33788;-95
2022/10/11 19:44:14;;;;;;;;;;;;;;;17.17;63.68;100275.72;5289880;27;32641;-91
2022/10/11 19:46:43;;;;;;;;;;;;;;;17.13;63.89;100271.47;5296337;27;34664;-89
2022/10/11 19:49:24;;;;;;;;;;;;;;;17.10;63.79;100274.19;5312640;27;34370;-90
2022/10/11 19:52:00;;;;;;;;;;;;;;;17.03;63.97;100277.00;5273107;27;34039;-90
2022/10/11 19:54:40;;;;;;;;;;;;;;;17.17;63.16;100279.19;5290210;27;33680;-91
2022/10/11 19:57:09;;;;;;;;;;;;;;;17.14;62.98;100279.28;5310246;27;33790;-91
2022/10/11 19:59:42;;;;;;;;;;;;;;;17.16;62.75;100274.87;5316042;27;33963;-91
2022/10/11 20:02:12;;;;;;;;;;;;;;;17.06;63.26;100276.91;5310961;27;34804;-94
2022/10/11 20:04:42;;;;;;;;;;;;;;;17.13;62.85;100279.31;5272403;27;34741;-90
2022/10/11 20:07:29;;;;;;;;;;;;;;;17.16;62.85;100284.50;5292117;27;35284;-92
2022/10/11 20:10:10;;;;;;;;;;;;;;;17.22;62.25;100287.75;5272241;27;34339;-94
2022/10/11 20:12:52;;;;;;;;;;;;;;;;;;;;;
2022/10/11 20:15:38;;;;;;;;;;;;;;;17.00;62.78;100286.72;5340296;26;34163;-90
2022/10/11 20:18:15;;;;;;;;;;;;;;;16.87;63.38;100294.09;5336186;26;33479;-93
2022/10/11 20:20:52;;;;;;;;;;;;;;;16.77;63.77;100292.62;5334831;26;33394;-92
2022/10/11 20:23:42;;;;;;;;;;;;;;;16.89;63.08;100297.53;5338523;26;34033;-95
2022/10/11 20:30:31;;;;;;;;;;;;;;;16.74;63.21;100300.53;5332255;26;33993;-93
2022/10/11 20:33:01;;;;;;;;;;;;;;;16.73;63.00;100293.59;5312961;26;35953;-95
2022/10/11 20:35:31;;;;;;;;;;;;;;;16.68;62.96;100291.13;5333725;26;34590;-91
2022/10/11 20:38:02;;;;;;;;;;;;;;;16.68;62.98;100293.72;5339113;26;34538;-92
2022/10/11 20:40:37;;;;;;;;;;;;;;;16.46;63.69;100298.72;5314516;26;33486;-92